Terminal Aerodrome Forecast
Issued by NWS Topeka, KS

Home | Current Version | Previous Version | Graphics & Text | Print | Product List | Glossary On
Versions: 1 2 3 4 5 6 7 8 9 10 11 12 13 14 15
000
FTUS43 KTOP 251100
TAFTOP
TAF
KTOP 251126Z 2512/2612 17011KT P6SM BKN250
     FM251600 18018G28KT P6SM BKN200
     FM260000 19010KT P6SM SCT200=

USA.gov is the U.S. government's official web portal to all federal, state and local government web resources and services.